Time;durP1;ratioP1;P1;durP2;ratioP2;P2;SDS_P1;SDS_P2;PMS_P1;PMS_P2;Temp;Humidity;BMP_temperature;BMP_pressure;BME280_temperature;BME280_humidity;BME280_pressure;Samples;Min_cycle;Max_cycle;Signal;HPM_P1;HPM_P2
2023/07/24 00:01:07;;;;;;;;;;;;;;;15.83;80.21;98967.22;6243876;22;19930;-91
2023/07/24 00:03:37;;;;;;;;;;;;;;;15.81;80.19;98981.34;6274194;22;19910;-94
2023/07/24 00:06:03;;;;;;;;;;;;;;;15.78;80.45;98971.03;6270171;22;19929;-92
2023/07/24 00:08:33;;;;;;;;;;;;;;;15.71;80.76;98977.16;6322159;22;19919;-91
2023/07/24 00:14:18;;;;;;;;;;;;;;;15.56;81.54;98988.16;6324654;22;19910;-91
2023/07/24 00:16:51;;;;;;;;;;;;;;;15.50;81.54;98984.88;6296826;22;19918;-92
2023/07/24 00:19:21;;;;;;;;;;;;;;;15.50;81.76;98974.66;6245159;22;19923;-91
2023/07/24 00:22:00;;;;;;;;;;;;;;;15.57;81.59;98981.50;6275908;22;19917;-91
2023/07/24 00:24:33;;;;;;;;;;;;;;;15.44;81.87;98972.50;6275433;22;19934;-91
2023/07/24 00:26:59;;;;;;;;;;;;;;;15.42;81.95;98981.13;6272611;22;19931;-91
2023/07/24 00:29:35;;;;;;;;;;;;;;;15.39;82.24;98972.75;6239344;22;20356;-91
2023/07/24 00:32:27;;;;;;;;;;;;;;;15.37;82.26;98973.13;6237874;22;19924;-91
2023/07/24 00:35:29;;;;;;;;;;;;;;;15.36;82.11;98977.00;6260177;22;20372;-92
2023/07/24 00:37:57;;;;;;;;;;;;;;;15.32;82.27;98970.63;6263904;22;19904;-92
2023/07/24 00:40:25;;;;;;;;;;;;;;;15.27;82.39;98973.63;6240301;22;19903;-92
2023/07/24 00:43:14;;;;;;;;;;;;;;;15.24;82.53;98968.84;6288478;22;19923;-93
2023/07/24 00:46:33;;;;;;;;;;;;;;;15.18;82.59;98967.50;6285152;22;19934;-92
2023/07/24 00:49:00;;;;;;;;;;;;;;;15.12;82.67;98972.44;6210195;22;19923;-93
2023/07/24 00:51:29;;;;;;;;;;;;;;;15.10;82.93;98972.00;6263724;22;19923;-93
2023/07/24 00:54:03;;;;;;;;;;;;;;;15.10;82.78;98973.94;6234397;22;20475;-92
2023/07/24 00:56:30;;;;;;;;;;;;;;;15.10;82.68;98969.25;6208516;22;19926;-93
2023/07/24 00:58:58;;;;;;;;;;;;;;;15.12;82.47;98966.94;6214563;22;19923;-90
2023/07/24 01:01:26;;;;;;;;;;;;;;;15.08;82.44;98968.78;6263475;22;19942;-92
2023/07/24 01:03:53;;;;;;;;;;;;;;;15.08;82.43;98966.03;6290482;22;19923;-93
2023/07/24 01:06:18;;;;;;;;;;;;;;;15.06;82.55;98954.56;6265315;22;19997;-92
2023/07/24 01:08:45;;;;;;;;;;;;;;;15.07;82.32;98958.94;6291892;22;19926;-93
2023/07/24 01:11:18;;;;;;;;;;;;;;;15.07;82.50;98958.94;6258583;22;19919;-92
2023/07/24 01:13:56;;;;;;;;;;;;;;;15.04;82.36;98957.69;6166047;23;19925;-92
2023/07/24 01:16:55;;;;;;;;;;;;;;;15.02;82.31;98959.19;6140702;23;19929;-93
2023/07/24 01:19:38;;;;;;;;;;;;;;;15.03;82.20;98964.34;6135205;23;19925;-92
2023/07/24 01:22:28;;;;;;;;;;;;;;;14.97;82.18;98959.44;6134761;23;19911;-92
2023/07/24 01:25:14;;;;;;;;;;;;;;;14.99;82.00;98959.88;6110391;23;19980;-92
2023/07/24 01:27:42;;;;;;;;;;;;;;;14.98;82.33;98961.84;6131521;23;19925;-93
2023/07/24 01:30:08;;;;;;;;;;;;;;;14.96;82.13;98960.59;6138133;23;19920;-92
2023/07/24 01:32:59;;;;;;;;;;;;;;;14.91;82.40;98969.09;6140300;23;19920;-93
2023/07/24 01:35:39;;;;;;;;;;;;;;;14.86;82.56;98969.34;6114245;23;19952;-92
2023/07/24 01:38:08;;;;;;;;;;;;;;;14.87;82.27;98968.22;6120137;23;19924;-92
2023/07/24 01:40:34;;;;;;;;;;;;;;;14.87;82.12;98965.47;6118148;23;20294;-91
2023/07/24 01:43:04;;;;;;;;;;;;;;;14.87;81.88;98973.72;6133731;23;19924;-95
2023/07/24 01:45:29;;;;;;;;;;;;;;;14.94;81.77;98971.16;6128539;23;19920;-96
2023/07/24 01:48:00;;;;;;;;;;;;;;;14.93;81.38;98975.03;6145941;23;19954;-94
2023/07/24 01:50:26;;;;;;;;;;;;;;;14.90;81.45;98971.06;6173122;23;19920;-94
2023/07/24 01:52:52;;;;;;;;;;;;;;;14.95;81.55;98965.28;6175696;23;19927;-95
2023/07/24 01:55:21;;;;;;;;;;;;;;;14.92;81.31;98954.97;6173629;23;19990;-97
2023/07/24 01:58:12;;;;;;;;;;;;;;;14.91;81.24;98967.16;6173160;23;20366;-95
2023/07/24 02:00:38;;;;;;;;;;;;;;;14.97;81.00;98964.97;6149899;23;19920;-96
2023/07/24 02:03:05;;;;;;;;;;;;;;;15.01;80.92;98961.13;6175613;23;19900;-96
2023/07/24 02:06:10;;;;;;;;;;;;;;;15.10;80.40;98961.00;6171074;23;20370;-94
2023/07/24 02:08:35;;;;;;;;;;;;;;;15.13;80.18;98963.03;6151799;22;19923;-96
2023/07/24 02:11:01;;;;;;;;;;;;;;;15.15;80.18;98966.22;6232280;22;19919;-95
2023/07/24 02:13:27;;;;;;;;;;;;;;;15.21;80.50;98962.06;6194003;23;19915;-96
2023/07/24 02:16:02;;;;;;;;;;;;;;;15.23;80.30;98969.97;6214950;23;19950;-94
2023/07/24 02:19:04;;;;;;;;;;;;;;;15.23;80.55;98964.47;6168995;23;19916;-93
2023/07/24 02:21:56;;;;;;;;;;;;;;;15.27;80.77;98977.19;6190595;23;20002;-96
2023/07/24 02:24:22;;;;;;;;;;;;;;;15.30;80.45;98969.34;6191907;23;19960;-94
2023/07/24 02:26:47;;;;;;;;;;;;;;;15.33;80.12;98968.66;6166757;23;19927;-95
2023/07/24 02:29:22;;;;;;;;;;;;;;;15.34;80.28;98973.81;6204109;23;19920;-96
2023/07/24 02:31:50;;;;;;;;;;;;;;;15.38;79.86;98965.66;6168435;23;19926;-94
2023/07/24 02:34:17;;;;;;;;;;;;;;;15.50;79.53;98976.59;6190962;23;19920;-94
2023/07/24 02:37:03;;;;;;;;;;;;;;;15.49;79.17;98975.00;6167840;23;19927;-93
2023/07/24 02:39:58;;;;;;;;;;;;;;;15.53;78.23;98975.91;6139972;23;19921;-93
2023/07/24 02:42:23;;;;;;;;;;;;;;;15.61;78.35;98969.41;6151198;23;19928;-94
2023/07/24 02:44:50;;;;;;;;;;;;;;;15.64;77.95;98974.22;6072337;23;19925;-94
2023/07/24 02:47:24;;;;;;;;;;;;;;;15.68;77.80;98963.31;6098132;23;19921;-94
2023/07/24 02:49:50;;;;;;;;;;;;;;;15.69;76.99;98979.50;6098577;23;20394;-94
2023/07/24 02:52:34;;;;;;;;;;;;;;;15.79;77.16;98972.63;6092739;23;19928;-94
2023/07/24 02:55:21;;;;;;;;;;;;;;;15.77;76.61;98976.91;6091738;23;19930;-92
2023/07/24 02:57:59;;;;;;;;;;;;;;;15.82;77.25;98979.38;6069230;23;19921;-94
2023/07/24 03:00:34;;;;;;;;;;;;;;;15.81;76.47;98980.56;6067343;23;19921;-96
2023/07/24 03:03:00;;;;;;;;;;;;;;;15.77;76.26;98985.19;6069420;23;19926;-94
2023/07/24 03:05:26;;;;;;;;;;;;;;;15.78;76.86;98981.25;6020723;23;19937;-96
2023/07/24 03:07:52;;;;;;;;;;;;;;;15.87;76.21;98973.63;6093980;23;19922;-96
2023/07/24 03:10:22;;;;;;;;;;;;;;;15.85;76.65;98976.72;6068678;23;19928;-93
2023/07/24 03:13:00;;;;;;;;;;;;;;;15.88;76.31;98976.00;6020560;23;19947;-96
2023/07/24 03:15:32;;;;;;;;;;;;;;;15.92;76.33;98981.59;6068632;23;19944;-93
2023/07/24 03:17:57;;;;;;;;;;;;;;;15.96;75.75;98982.50;6134396;23;19935;-95
2023/07/24 03:20:35;;;;;;;;;;;;;;;16.05;75.64;98980.34;6160302;23;19920;-93
2023/07/24 03:23:01;;;;;;;;;;;;;;;16.12;75.92;98980.50;6136317;23;19920;-96
2023/07/24 03:28:41;;;;;;;;;;;;;;;16.26;75.45;98969.03;6151783;23;19999;-93
2023/07/24 03:31:07;;;;;;;;;;;;;;;16.37;75.84;98978.34;6126038;23;19921;-95
2023/07/24 03:33:39;;;;;;;;;;;;;;;16.52;75.05;98979.44;6078112;23;19920;-93
2023/07/24 03:36:05;;;;;;;;;;;;;;;16.55;75.24;98970.44;6155286;23;20255;-94
2023/07/24 03:38:31;;;;;;;;;;;;;;;16.69;75.18;98972.72;6135171;23;19959;-94
2023/07/24 03:41:31;;;;;;;;;;;;;;;16.78;74.73;98978.06;6137179;23;20413;-96
2023/07/24 03:43:57;;;;;;;;;;;;;;;16.71;73.33;98975.91;6113716;23;19970;-95
2023/07/24 03:46:23;;;;;;;;;;;;;;;16.70;73.89;98979.06;6110911;23;20035;-95
2023/07/24 03:48:50;;;;;;;;;;;;;;;16.69;73.52;98975.50;6136593;23;19980;-94
2023/07/24 03:51:19;;;;;;;;;;;;;;;16.69;74.42;98986.53;6137484;23;19920;-96
2023/07/24 03:54:13;;;;;;;;;;;;;;;16.69;73.95;98978.25;6140009;23;19920;-93
2023/07/24 03:56:38;;;;;;;;;;;;;;;16.72;74.69;98983.06;6113952;23;19981;-93
2023/07/24 03:59:11;;;;;;;;;;;;;;;16.79;73.54;98983.22;6113947;23;19924;-93
2023/07/24 04:01:38;;;;;;;;;;;;;;;16.80;73.00;98984.03;6115739;23;20365;-96
2023/07/24 04:04:04;;;;;;;;;;;;;;;16.82;73.27;98984.44;6137854;23;19920;-92
2023/07/24 04:06:30;;;;;;;;;;;;;;;16.84;72.95;98982.94;6165398;23;19924;-95
2023/07/24 04:09:21;;;;;;;;;;;;;;;16.79;73.46;98985.19;6259426;22;19927;-92
2023/07/24 04:11:51;;;;;;;;;;;;;;;16.80;73.50;98979.28;6255785;22;19969;-92
2023/07/24 04:14:16;;;;;;;;;;;;;;;16.81;73.09;98991.13;6260626;22;19926;-96
2023/07/24 04:16:42;;;;;;;;;;;;;;;16.76;72.67;98995.00;6237234;22;20006;-96
2023/07/24 04:19:08;;;;;;;;;;;;;;;16.81;73.25;98991.13;6235175;22;19954;-93
2023/07/24 04:21:34;;;;;;;;;;;;;;;16.85;73.83;98989.25;6238405;22;19920;-92
2023/07/24 04:24:12;;;;;;;;;;;;;;;16.88;73.00;98988.53;6264135;22;19930;-93
2023/07/24 04:26:39;;;;;;;;;;;;;;;16.93;73.41;98991.00;6266541;22;19919;-94
2023/07/24 04:29:06;;;;;;;;;;;;;;;16.94;73.18;98989.03;6218518;22;19900;-96
2023/07/24 04:31:34;;;;;;;;;;;;;;;16.96;73.47;98987.53;6260801;22;20068;-92
2023/07/24 04:34:03;;;;;;;;;;;;;;;17.06;73.23;98988.91;6289648;22;20160;-91
2023/07/24 04:36:30;;;;;;;;;;;;;;;17.07;73.68;98983.00;6211191;22;19952;-95
2023/07/24 04:38:56;;;;;;;;;;;;;;;17.11;73.19;98983.06;6286894;22;19926;-94
2023/07/24 04:41:22;;;;;;;;;;;;;;;17.14;72.63;98977.59;6254372;22;20309;-94
2023/07/24 04:43:48;;;;;;;;;;;;;;;17.26;73.18;98981.38;6230515;22;19942;-95
2023/07/24 04:46:14;;;;;;;;;;;;;;;17.32;72.84;98975.19;6236748;22;19919;-92
2023/07/24 04:48:41;;;;;;;;;;;;;;;17.41;72.36;98977.72;6262833;22;19923;-94
2023/07/24 04:51:07;;;;;;;;;;;;;;;17.53;69.50;98971.22;6259884;22;19926;-90
2023/07/24 04:54:04;;;;;;;;;;;;;;;17.66;69.52;98963.56;6228136;23;20008;-94
2023/07/24 04:59:08;;;;;;;;;;;;;;;17.96;70.35;98961.72;6203226;23;19946;-89
2023/07/24 05:01:39;;;;;;;;;;;;;;;18.12;69.70;98963.53;6148276;23;19912;-90
2023/07/24 05:04:05;;;;;;;;;;;;;;;18.13;65.88;98965.13;6194898;23;19920;-90
2023/07/24 05:06:32;;;;;;;;;;;;;;;18.27;67.75;98968.88;6200425;23;19920;-91
2023/07/24 05:09:02;;;;;;;;;;;;;;;18.38;65.42;98966.28;6221354;23;19908;-90
2023/07/24 05:11:28;;;;;;;;;;;;;;;18.43;64.23;98968.72;6223406;23;19920;-92
2023/07/24 05:13:53;;;;;;;;;;;;;;;18.46;64.68;98967.97;6201648;23;19947;-92
2023/07/24 05:16:37;;;;;;;;;;;;;;;18.49;65.93;98963.66;6170914;23;19926;-91
2023/07/24 05:19:31;;;;;;;;;;;;;;;18.49;66.14;98969.22;6195691;23;19936;-91
2023/07/24 05:21:59;;;;;;;;;;;;;;;18.41;65.91;98981.34;6194206;23;19983;-92
2023/07/24 05:24:29;;;;;;;;;;;;;;;18.43;66.09;98971.50;6208223;23;19919;-91
2023/07/24 05:27:05;;;;;;;;;;;;;;;18.55;66.05;98973.25;6165520;23;19924;-91
2023/07/24 05:29:30;;;;;;;;;;;;;;;18.63;65.84;98980.47;6195365;23;19920;-92
2023/07/24 05:31:56;;;;;;;;;;;;;;;18.78;64.38;98968.44;6172177;23;19927;-95
2023/07/24 05:34:22;;;;;;;;;;;;;;;18.96;62.90;98968.66;6221243;23;19924;-90
2023/07/24 05:36:51;;;;;;;;;;;;;;;19.06;63.60;98966.38;6196991;23;19920;-91
2023/07/24 05:39:18;;;;;;;;;;;;;;;19.20;62.46;98966.53;6175775;23;20342;-92
2023/07/24 05:41:47;;;;;;;;;;;;;;;19.30;62.81;98974.16;6220332;23;19911;-92
2023/07/24 05:44:26;;;;;;;;;;;;;;;19.40;61.93;98969.91;6194979;23;19920;-91
2023/07/24 05:46:54;;;;;;;;;;;;;;;19.46;61.39;98968.41;6171345;23;19926;-90
2023/07/24 05:49:22;;;;;;;;;;;;;;;19.54;61.43;98960.97;6194433;23;19931;-92
2023/07/24 05:51:53;;;;;;;;;;;;;;;19.51;61.11;98962.53;6198894;23;19927;-91
2023/07/24 05:54:20;;;;;;;;;;;;;;;19.56;60.16;98955.81;6169739;23;19920;-92
2023/07/24 05:56:55;;;;;;;;;;;;;;;19.58;60.45;98965.34;6202618;22;19924;-92
2023/07/24 05:59:33;;;;;;;;;;;;;;;19.71;59.24;98963.91;6233238;22;19923;-91
2023/07/24 06:02:09;;;;;;;;;;;;;;;19.91;58.30;98958.94;6196771;23;19998;-93
2023/07/24 06:04:36;;;;;;;;;;;;;;;19.99;57.84;98958.97;6230109;22;19923;-93
2023/07/24 06:07:09;;;;;;;;;;;;;;;20.04;54.41;98955.88;6254988;22;19923;-90
2023/07/24 06:09:35;;;;;;;;;;;;;;;20.13;54.94;98954.34;6282492;22;19914;-90
2023/07/24 06:12:04;;;;;;;;;;;;;;;20.21;55.85;98959.94;6236506;22;20249;-91
2023/07/24 06:14:30;;;;;;;;;;;;;;;20.28;54.90;98963.56;6260438;22;19918;-91
2023/07/24 06:16:55;;;;;;;;;;;;;;;20.38;54.28;98960.03;6314800;22;20440;-91
2023/07/24 06:19:25;;;;;;;;;;;;;;;20.35;52.86;98963.59;6234348;22;19923;-90
2023/07/24 06:21:51;;;;;;;;;;;;;;;20.37;54.77;98958.47;6198539;23;20054;-90
2023/07/24 06:24:23;;;;;;;;;;;;;;;20.50;56.13;98958.94;6200263;23;19919;-89
2023/07/24 06:26:52;;;;;;;;;;;;;;;20.56;52.62;98956.59;6225208;23;19955;-90
2023/07/24 06:29:19;;;;;;;;;;;;;;;20.60;53.74;98966.56;6222789;23;19931;-89
2023/07/24 06:31:47;;;;;;;;;;;;;;;20.48;51.90;98964.06;6225349;23;19920;-90
2023/07/24 06:34:13;;;;;;;;;;;;;;;20.50;52.89;98963.69;6224098;23;19978;-91
2023/07/24 06:36:45;;;;;;;;;;;;;;;20.34;50.65;98959.25;6226817;23;19919;-91
2023/07/24 06:39:10;;;;;;;;;;;;;;;20.28;52.44;98966.34;6223030;23;20010;-89
2023/07/24 06:41:36;;;;;;;;;;;;;;;20.28;52.70;98963.56;6249139;23;19915;-89
2023/07/24 06:44:04;;;;;;;;;;;;;;;20.32;53.61;98961.59;6171700;23;19919;-89
2023/07/24 06:46:31;;;;;;;;;;;;;;;20.30;54.31;98971.50;6249925;23;19926;-90
2023/07/24 06:48:57;;;;;;;;;;;;;;;20.35;53.47;98973.91;6224198;23;19915;-90
2023/07/24 06:51:24;;;;;;;;;;;;;;;20.42;53.97;98973.94;6248684;23;20368;-90
2023/07/24 06:53:54;;;;;;;;;;;;;;;20.54;53.29;98970.09;6256574;22;19915;-91
2023/07/24 06:56:22;;;;;;;;;;;;;;;20.32;52.31;98971.91;6146201;23;20409;-90
2023/07/24 07:01:57;;;;;;;;;;;;;;;20.17;54.08;98966.25;6193953;23;19928;-91
2023/07/24 07:04:57;;;;;;;;;;;;;;;20.15;55.63;98962.28;5871680;23;8122981;-91
2023/07/24 07:07:49;;;;;;;;;;;;;;;20.24;57.40;98962.75;6183614;23;20048;-90
2023/07/24 07:10:34;;;;;;;;;;;;;;;20.24;55.80;98967.50;6219891;23;19919;-92
2023/07/24 07:13:12;;;;;;;;;;;;;;;20.01;54.81;98964.97;6198841;23;19973;-91
2023/07/24 07:15:44;;;;;;;;;;;;;;;20.02;56.61;98974.88;6222419;23;19924;-89
2023/07/24 07:18:10;;;;;;;;;;;;;;;19.86;56.12;98970.38;6197022;23;19920;-94
2023/07/24 07:21:06;;;;;;;;;;;;;;;19.73;56.43;98966.28;6226097;23;19942;-91
2023/07/24 07:24:04;;;;;;;;;;;;;;;19.69;56.18;98962.69;6194278;23;19915;-90
2023/07/24 07:26:40;;;;;;;;;;;;;;;19.88;58.09;98959.69;6221001;23;20056;-90
2023/07/24 07:29:05;;;;;;;;;;;;;;;19.95;57.39;98967.28;6171342;23;19919;-90
2023/07/24 07:31:38;;;;;;;;;;;;;;;20.07;58.74;98963.41;6197735;23;19900;-90
2023/07/24 07:34:07;;;;;;;;;;;;;;;20.16;57.68;98964.69;6232754;22;19926;-90
2023/07/24 07:36:39;;;;;;;;;;;;;;;20.28;56.53;98968.31;6263539;22;19922;-91
2023/07/24 07:39:09;;;;;;;;;;;;;;;20.17;55.63;98962.69;6255955;22;19923;-91
2023/07/24 07:42:14;;;;;;;;;;;;;;;20.08;57.25;98962.22;6200489;23;19926;-91
2023/07/24 07:44:41;;;;;;;;;;;;;;;20.04;57.25;98955.88;6301911;22;19926;-90
2023/07/24 07:47:16;;;;;;;;;;;;;;;20.09;57.16;98959.06;6258737;22;19958;-91
2023/07/24 07:49:42;;;;;;;;;;;;;;;20.14;56.28;98964.25;6259405;22;19923;-89
2023/07/24 07:52:08;;;;;;;;;;;;;;;20.13;56.53;98953.53;6234869;22;20010;-91
2023/07/24 07:54:34;;;;;;;;;;;;;;;20.13;55.58;98959.91;6234258;22;19940;-90
2023/07/24 07:57:00;;;;;;;;;;;;;;;20.12;56.40;98957.50;6234810;22;19919;-90
2023/07/24 07:59:28;;;;;;;;;;;;;;;20.16;55.19;98959.13;6313845;22;19934;-89
2023/07/24 08:01:57;;;;;;;;;;;;;;;20.22;57.69;98959.53;6264331;22;19954;-90
2023/07/24 08:04:23;;;;;;;;;;;;;;;20.17;57.80;98954.38;6286327;22;19919;-89
2023/07/24 08:06:49;;;;;;;;;;;;;;;20.20;55.38;98950.81;6263778;22;19919;-91
2023/07/24 08:09:21;;;;;;;;;;;;;;;20.29;58.31;98944.91;6242559;22;19919;-90
2023/07/24 08:11:47;;;;;;;;;;;;;;;20.31;55.92;98948.13;6239305;22;19918;-91
2023/07/24 08:14:24;;;;;;;;;;;;;;;20.14;56.69;98949.59;6293775;22;19950;-91
2023/07/24 08:20:02;;;;;;;;;;;;;;;20.24;58.79;98948.06;6286773;22;19919;-90
2023/07/24 08:23:00;;;;;;;;;;;;;;;20.23;58.84;98938.94;6264135;22;19922;-91
2023/07/24 08:25:29;;;;;;;;;;;;;;;20.27;58.26;98936.19;6264336;22;19945;-93
2023/07/24 08:27:56;;;;;;;;;;;;;;;20.29;59.65;98939.38;6234632;22;19919;-91
2023/07/24 08:30:23;;;;;;;;;;;;;;;20.32;58.39;98936.59;6280385;22;19919;-91
2023/07/24 08:32:51;;;;;;;;;;;;;;;20.23;59.24;98935.34;6285362;22;19919;-94
2023/07/24 08:35:16;;;;;;;;;;;;;;;20.19;61.45;98941.69;6280983;22;20340;-92
2023/07/24 08:37:43;;;;;;;;;;;;;;;20.25;62.17;98938.56;6280768;22;19929;-91
2023/07/24 08:40:11;;;;;;;;;;;;;;;20.26;60.80;98937.38;6218401;23;19920;-91
2023/07/24 08:42:39;;;;;;;;;;;;;;;20.24;61.63;98934.19;6218173;23;19919;-92
2023/07/24 08:45:08;;;;;;;;;;;;;;;20.32;61.49;98928.28;6197349;23;19919;-91
2023/07/24 08:47:35;;;;;;;;;;;;;;;20.22;62.13;98937.34;6219331;23;19920;-88
2023/07/24 08:50:06;;;;;;;;;;;;;;;20.22;63.91;98929.00;6244958;23;19926;-86
2023/07/24 08:52:33;;;;;;;;;;;;;;;20.22;64.47;98933.78;6241835;23;19930;-90
2023/07/24 08:55:01;;;;;;;;;;;;;;;20.21;63.73;98934.97;6240716;23;19927;-89
2023/07/24 08:57:27;;;;;;;;;;;;;;;20.14;63.71;98933.72;6241399;23;19927;-92
2023/07/24 08:59:56;;;;;;;;;;;;;;;20.10;63.40;98937.69;6221725;23;19920;-86
2023/07/24 09:02:21;;;;;;;;;;;;;;;20.12;63.94;98936.09;6223456;23;19978;-87
2023/07/24 09:04:47;;;;;;;;;;;;;;;20.17;65.40;98937.72;6240931;23;19950;-89
2023/07/24 09:07:13;;;;;;;;;;;;;;;20.15;63.64;98937.31;6241202;23;19926;-88
2023/07/24 09:09:39;;;;;;;;;;;;;;;20.16;63.01;98933.34;6215478;23;19919;-86
2023/07/24 09:12:05;;;;;;;;;;;;;;;20.00;64.36;98932.81;6297500;22;19919;-87
2023/07/24 09:14:32;;;;;;;;;;;;;;;19.89;64.90;98944.63;6305923;22;19923;-89
2023/07/24 09:17:05;;;;;;;;;;;;;;;19.88;65.15;98931.97;6278414;22;19980;-89
2023/07/24 09:19:33;;;;;;;;;;;;;;;19.99;64.48;98931.25;6278091;22;19998;-88
2023/07/24 09:22:12;;;;;;;;;;;;;;;19.90;65.36;98929.59;6279095;22;19942;-87
2023/07/24 09:24:48;;;;;;;;;;;;;;;20.03;66.93;98932.84;6279955;22;19919;-88
2023/07/24 09:27:14;;;;;;;;;;;;;;;20.12;66.42;98924.19;6305985;22;20263;-87
2023/07/24 09:29:41;;;;;;;;;;;;;;;20.16;64.42;98916.69;6303405;22;19964;-89
2023/07/24 09:32:07;;;;;;;;;;;;;;;20.15;65.66;98910.34;6306910;22;19922;-90
2023/07/24 09:34:33;;;;;;;;;;;;;;;20.17;65.15;98909.97;6278361;22;19982;-89
2023/07/24 09:36:59;;;;;;;;;;;;;;;20.21;66.62;98899.69;6257315;22;19938;-92
2023/07/24 09:39:25;;;;;;;;;;;;;;;20.12;65.65;98902.78;6310686;22;19918;-92
2023/07/24 09:41:52;;;;;;;;;;;;;;;19.91;65.80;98906.22;6257770;22;20280;-92
2023/07/24 09:44:18;;;;;;;;;;;;;;;19.77;67.58;98906.13;6260783;22;19919;-90
2023/07/24 09:46:45;;;;;;;;;;;;;;;19.53;67.71;98901.91;6284582;22;19918;-92
2023/07/24 09:49:12;;;;;;;;;;;;;;;19.48;67.38;98896.75;6258230;22;19918;-91
2023/07/24 09:51:38;;;;;;;;;;;;;;;19.24;69.06;98912.75;6281729;22;19919;-91
2023/07/24 09:54:07;;;;;;;;;;;;;;;19.28;71.53;98900.91;6229770;22;19922;-91
2023/07/24 09:56:34;;;;;;;;;;;;;;;19.37;72.95;98902.19;6284445;22;19923;-92
2023/07/24 09:59:02;;;;;;;;;;;;;;;19.46;73.00;98891.56;6284134;22;19926;-91
2023/07/24 10:01:29;;;;;;;;;;;;;;;19.45;72.15;98897.50;6261137;22;19940;-90
2023/07/24 10:03:57;;;;;;;;;;;;;;;19.51;72.33;98895.19;6310472;22;19922;-89
2023/07/24 10:06:26;;;;;;;;;;;;;;;19.49;72.02;98890.81;6309144;22;19941;-89
2023/07/24 10:08:52;;;;;;;;;;;;;;;19.58;71.20;98893.25;6307737;22;19964;-89
2023/07/24 10:11:18;;;;;;;;;;;;;;;19.49;70.60;98893.56;6283763;22;19919;-89
2023/07/24 10:13:45;;;;;;;;;;;;;;;19.40;71.31;98882.03;6279708;22;19943;-89
2023/07/24 10:16:11;;;;;;;;;;;;;;;19.22;71.89;98881.06;6312983;22;19963;-90
2023/07/24 10:18:45;;;;;;;;;;;;;;;19.19;72.66;98881.81;6308694;22;19946;-90
2023/07/24 10:21:14;;;;;;;;;;;;;;;19.08;71.91;98872.63;6308144;22;19919;-91
2023/07/24 10:24:05;;;;;;;;;;;;;;;18.93;72.39;98875.22;6286186;22;19919;-88
2023/07/24 10:26:34;;;;;;;;;;;;;;;19.04;72.01;98866.22;6308169;22;19958;-87
2023/07/24 10:29:02;;;;;;;;;;;;;;;19.13;70.93;98864.75;6280430;22;20557;-89
2023/07/24 10:31:30;;;;;;;;;;;;;;;19.17;70.93;98856.47;6309763;22;19919;-91
2023/07/24 10:34:03;;;;;;;;;;;;;;;19.38;71.86;98850.34;6311119;22;19926;-88
2023/07/24 10:36:33;;;;;;;;;;;;;;;19.93;68.07;98845.63;6311751;22;20337;-88
2023/07/24 10:39:01;;;;;;;;;;;;;;;20.02;67.59;98848.03;6307478;22;19919;-88
2023/07/24 10:41:36;;;;;;;;;;;;;;;20.13;67.60;98843.34;6281706;22;19919;-91
2023/07/24 10:44:04;;;;;;;;;;;;;;;20.06;67.75;98840.50;6305811;22;19926;-88
2023/07/24 10:46:36;;;;;;;;;;;;;;;19.84;69.85;98841.59;6308716;22;19919;-88
2023/07/24 10:49:02;;;;;;;;;;;;;;;19.87;68.55;98838.84;6281044;22;19930;-89
2023/07/24 10:51:33;;;;;;;;;;;;;;;19.88;69.51;98837.66;6306778;22;20269;-92
2023/07/24 10:53:59;;;;;;;;;;;;;;;19.82;70.23;98836.41;6308380;22;20435;-90
2023/07/24 10:56:25;;;;;;;;;;;;;;;20.08;69.49;98842.91;6308680;22;19919;-89
2023/07/24 10:58:52;;;;;;;;;;;;;;;20.44;67.70;98840.31;6278149;22;19927;-87
2023/07/24 11:01:18;;;;;;;;;;;;;;;20.32;68.49;98830.34;6305587;22;19919;-87
2023/07/24 11:03:44;;;;;;;;;;;;;;;20.48;69.14;98836.34;6278443;22;19926;-89
2023/07/24 11:06:14;;;;;;;;;;;;;;;20.34;68.14;98826.00;6308620;22;19926;-86
2023/07/24 11:08:40;;;;;;;;;;;;;;;20.19;68.47;98833.44;6277962;22;20537;-87
2023/07/24 11:11:07;;;;;;;;;;;;;;;20.09;68.49;98828.63;6253098;22;19926;-88
2023/07/24 11:13:34;;;;;;;;;;;;;;;20.29;68.08;98818.03;6305702;22;19925;-90
2023/07/24 11:16:04;;;;;;;;;;;;;;;20.41;66.57;98817.69;6279253;22;19950;-89
2023/07/24 11:18:30;;;;;;;;;;;;;;;20.61;65.79;98828.50;6310565;22;20005;-92
2023/07/24 11:20:56;;;;;;;;;;;;;;;20.71;66.07;98822.16;6310450;22;19926;-90
2023/07/24 11:23:22;;;;;;;;;;;;;;;20.56;65.48;98817.75;6282913;22;20466;-92
2023/07/24 11:25:52;;;;;;;;;;;;;;;20.80;65.05;98811.47;6257698;22;19926;-92
2023/07/24 11:28:19;;;;;;;;;;;;;;;20.96;64.71;98813.06;6309675;22;19926;-88
2023/07/24 11:30:45;;;;;;;;;;;;;;;21.10;64.58;98824.22;6310342;22;19955;-92
2023/07/24 11:33:15;;;;;;;;;;;;;;;20.82;65.51;98811.88;6310806;22;19926;-90
2023/07/24 11:35:41;;;;;;;;;;;;;;;20.50;66.56;98814.56;6284980;22;19940;-91
2023/07/24 11:38:10;;;;;;;;;;;;;;;20.55;65.57;98816.16;6281727;22;19919;-88
2023/07/24 11:40:38;;;;;;;;;;;;;;;20.53;66.86;98815.75;6310233;22;19925;-92
2023/07/24 11:43:27;;;;;;;;;;;;;;;20.54;66.09;98818.16;6290602;22;19919;-90
2023/07/24 11:45:55;;;;;;;;;;;;;;;20.55;67.30;98802.28;6315322;22;19918;-91
2023/07/24 11:48:23;;;;;;;;;;;;;;;20.65;66.70;98807.06;6282625;22;19922;-89
2023/07/24 11:50:53;;;;;;;;;;;;;;;20.61;66.93;98800.72;6282264;22;19926;-93
2023/07/24 11:53:23;;;;;;;;;;;;;;;20.15;68.00;98793.78;6308348;22;19914;-88
2023/07/24 11:55:50;;;;;;;;;;;;;;;20.16;68.64;98797.34;6277243;22;19947;-90
2023/07/24 11:58:16;;;;;;;;;;;;;;;20.27;68.79;98791.88;6308058;22;20368;-89
2023/07/24 12:00:42;;;;;;;;;;;;;;;20.17;68.88;98791.44;6304085;22;20049;-90
2023/07/24 12:03:08;;;;;;;;;;;;;;;20.10;68.85;98793.38;6303685;22;19919;-88
2023/07/24 12:05:38;;;;;;;;;;;;;;;20.09;69.04;98802.88;6276205;22;19977;-92
2023/07/24 12:08:03;;;;;;;;;;;;;;;20.08;69.15;98790.19;6304435;22;19941;-92
2023/07/24 12:10:29;;;;;;;;;;;;;;;19.86;69.62;98787.28;6304738;22;19997;-90
2023/07/24 12:12:58;;;;;;;;;;;;;;;19.93;69.72;98783.75;6305291;22;19988;-90
2023/07/24 12:15:24;;;;;;;;;;;;;;;20.06;69.50;98781.44;6307659;22;19919;-90
2023/07/24 12:17:51;;;;;;;;;;;;;;;20.18;68.57;98775.56;6305106;22;20009;-90
2023/07/24 12:20:17;;;;;;;;;;;;;;;19.98;69.19;98764.00;6257470;22;19926;-89
2023/07/24 12:22:47;;;;;;;;;;;;;;;20.03;69.48;98771.13;6280360;22;19926;-86
2023/07/24 12:25:13;;;;;;;;;;;;;;;20.10;68.77;98765.63;6228867;22;19923;-92
2023/07/24 12:27:41;;;;;;;;;;;;;;;19.91;69.45;98767.53;6278383;22;19919;-91
2023/07/24 12:30:07;;;;;;;;;;;;;;;19.85;69.89;98771.84;6278846;22;19919;-91
2023/07/24 12:32:33;;;;;;;;;;;;;;;19.91;69.47;98767.53;6306304;22;19993;-89
2023/07/24 12:35:00;;;;;;;;;;;;;;;19.88;69.60;98770.28;6279885;22;19941;-89
2023/07/24 12:37:26;;;;;;;;;;;;;;;20.03;69.27;98766.38;6282592;22;19919;-88
2023/07/24 12:39:52;;;;;;;;;;;;;;;19.94;69.00;98758.44;6307319;22;19919;-90
2023/07/24 12:42:18;;;;;;;;;;;;;;;19.71;70.13;98750.38;6311479;22;19926;-90
2023/07/24 12:44:46;;;;;;;;;;;;;;;19.58;71.18;98742.75;6282144;22;20446;-90
2023/07/24 12:47:12;;;;;;;;;;;;;;;19.71;70.72;98738.50;6308759;22;19919;-88
2023/07/24 12:49:38;;;;;;;;;;;;;;;19.48;72.02;98725.66;6280529;22;19918;-92
2023/07/24 12:52:04;;;;;;;;;;;;;;;19.35;72.85;98727.16;6286282;22;20340;-91
2023/07/24 12:54:31;;;;;;;;;;;;;;;19.32;72.56;98719.63;6286623;22;20367;-90
2023/07/24 12:56:58;;;;;;;;;;;;;;;19.18;73.34;98714.00;6310747;22;19954;-88
2023/07/24 12:59:26;;;;;;;;;;;;;;;19.12;74.11;98723.84;6286892;22;19919;-93
2023/07/24 13:01:52;;;;;;;;;;;;;;;19.11;74.61;98711.97;6308675;22;20453;-92
2023/07/24 13:04:19;;;;;;;;;;;;;;;19.02;75.74;98709.53;6254868;22;20016;-88
2023/07/24 13:06:46;;;;;;;;;;;;;;;19.15;75.05;98704.47;6280312;22;20264;-93
2023/07/24 13:09:12;;;;;;;;;;;;;;;19.32;74.34;98711.31;6279866;22;19915;-92
2023/07/24 13:11:38;;;;;;;;;;;;;;;19.49;73.16;98705.06;6280328;22;19919;-90
2023/07/24 13:14:03;;;;;;;;;;;;;;;19.45;73.40;98712.56;6308897;22;19919;-92
2023/07/24 13:16:29;;;;;;;;;;;;;;;19.76;71.84;98712.38;6306252;22;19960;-93
2023/07/24 13:18:55;;;;;;;;;;;;;;;19.93;71.25;98709.69;6309223;22;20352;-95
2023/07/24 13:21:23;;;;;;;;;;;;;;;19.72;72.97;98709.56;6307284;22;20416;-92